< < Back
Terminal Aerodrome Forecast


Current Version              Previous Versions:   1  2  3  4  5  6  7  8  9  

Terminal Aerodrome Forecast

634
FTUS42 KCHS 262320
TAFSAV
TAF
KSAV 262320Z 2700/2724 12009KT P6SM FEW050
     FM270200 VRB03KT P6SM FEW025
     FM271600 10012G18KT P6SM SCT050=

Latest METAR

922
SAUS80 KWBC 271500 RRA
MTRSAV
METAR KSAV 271453Z 06007KT 10SM FEW023 SCT029 31/21 A3008 RMK AO2 SLP185
T03060211 51004


USA.gov is the U.S. government's official web portal to all federal, state and local government web resources and services.